Latest Weather Observations for Bridgetown

IDW60801

Issued at 11:05 am WST Saturday 26 July 2014 (issued every 30 minutes, with the page automatically refreshed every 10 minutes)

About weather observations | Map of weather stations | Latest weather observations for WA | Other Formats
Station Details ID: 009617 Name: BRIDGETOWN Lat: -33.95 Lon: 116.13 Height: 178.66 m
Data from the previous 72 hours. | See also: Recent months at Bridgetown
Date/Time
WST
Temp
°C
App
Temp
°C
Dew
Point
Rel
Hum
%
Delta-T
°C
Wind Press
QNH
hPa
Press
MSL
hPa
Rain
since 9 am
mm
Dir
 
Spd
km/h
Gust
km/h
Spd
kts
Gust
kts
26/11:00am 12.8 12.9 12.6 99 0.1 WNW 4 9 2 5 1012.4 1012.6 5.8
26/10:30am 12.9 12.6 12.7 99 0.1 WNW 6 15 3 8 1012.6 - 4.4
26/10:00am 12.6 12.2 12.4 99 0.1 WNW 6 15 3 8 1012.5 1012.7 4.0
26/09:30am 13.0 12.2 12.8 99 0.1 WSW 9 22 5 12 1012.0 - 3.0
26/09:00am 13.8 13.3 13.8 100 0.0 NW 9 19 5 10 1010.7 1010.8 18.4
26/08:30am 13.7 13.7 13.7 100 0.0 NNW 6 13 3 7 1010.5 - 14.4
26/08:00am 13.8 13.3 13.8 100 0.0 NNW 9 17 5 9 1010.4 1010.5 12.0
26/07:30am 14.5 13.4 14.3 99 0.1 NNW 13 26 7 14 1010.2 - 9.0
26/07:00am 15.0 13.7 14.8 99 0.1 NNW 15 28 8 15 1009.5 1009.6 6.0
26/06:30am 15.6 13.7 15.3 98 0.2 NNW 19 32 10 17 1009.5 - 4.0
26/06:00am 15.7 13.6 15.1 96 0.3 N 20 35 11 19 1009.3 1009.4 4.0
26/05:30am 15.4 13.8 15.1 98 0.2 NNW 17 32 9 17 1009.5 - 4.0
26/05:00am 15.1 13.0 14.8 98 0.2 N 19 30 10 16 1009.8 1009.9 4.0
26/04:30am 14.9 13.2 14.6 98 0.2 N 17 26 9 14 1010.0 - 4.0
26/04:00am 14.9 13.9 14.6 98 0.2 NNW 13 28 7 15 1010.4 1010.5 4.0
26/03:30am 14.9 12.2 14.6 98 0.2 NNW 22 43 12 23 1010.6 - 4.0
26/03:00am 14.6 13.5 14.3 98 0.2 NNW 13 24 7 13 1011.0 1011.2 4.0
26/02:30am 14.4 12.5 14.1 98 0.2 NNW 17 35 9 19 1011.2 - 4.0
26/02:00am 13.8 12.1 13.6 99 0.1 NNW 15 32 8 17 1011.3 1011.5 4.0
26/01:30am 14.1 12.5 13.9 99 0.1 NW 15 33 8 18 1012.0 - 3.6
26/01:00am 14.5 12.3 14.3 99 0.1 NNW 19 33 10 18 1011.8 1012.0 2.6
26/12:30am 14.6 13.1 14.3 98 0.2 NNW 15 28 8 15 1011.9 - 1.8
26/12:00am 15.3 13.3 14.0 92 0.7 N 17 28 9 15 1011.9 1012.1 1.6
 
Date/Time
WST
Temp
°C
App
Temp
°C
Dew
Point
Rel
Hum
%
Delta-T
°C
Wind Press
QNH
hPa
Press
MSL
hPa
Rain
since 9 am
mm
Dir
 
Spd
km/h
Gust
km/h
Spd
kts
Gust
kts
25/11:30pm 15.4 12.8 13.1 86 1.3 NNW 19 32 10 17 1012.2 - 1.6
25/11:00pm 15.3 12.9 13.7 90 0.9 NNW 19 32 10 17 1012.6 1012.8 1.6
25/10:30pm 15.0 13.2 14.4 96 0.3 N 17 32 9 17 1012.9 - 1.6
25/10:00pm 14.8 12.9 14.2 96 0.3 N 17 26 9 14 1013.5 1013.7 1.6
25/09:30pm 14.6 12.6 13.8 95 0.5 N 17 30 9 16 1013.7 - 1.6
25/09:00pm 14.2 13.0 13.9 98 0.2 NNW 13 24 7 13 1013.9 1014.1 1.6
25/08:30pm 14.5 11.7 14.2 98 0.2 WNW 22 39 12 21 1014.4 - 1.6
25/08:00pm 14.3 13.9 14.0 98 0.2 N 9 17 5 9 1014.1 1014.3 1.4
25/07:30pm 14.2 13.0 13.9 98 0.2 NNW 13 20 7 11 1014.0 - 1.4
25/07:00pm 14.2 10.9 13.9 98 0.2 N 24 39 13 21 1014.1 1014.3 1.4
25/06:46pm 13.9 9.0 13.7 99 0.1 N 32 43 17 23 1013.9 - 1.4
25/06:30pm 14.0 13.5 13.7 98 0.2 N 9 15 5 8 1013.9 - 1.2
25/06:00pm 13.9 12.6 13.6 98 0.2 NNW 13 26 7 14 1014.2 1014.4 1.0
25/05:30pm 13.8 10.8 13.6 99 0.1 NNW 22 43 12 23 1014.5 - 0.8
25/05:00pm 13.9 12.2 13.7 99 0.1 N 15 24 8 13 1014.2 1014.4 0.4
25/04:30pm 14.6 12.1 13.6 94 0.6 NNW 19 28 10 15 1014.3 - 0.0
25/04:00pm 15.4 12.6 13.1 86 1.3 NNW 20 32 11 17 1014.5 1014.7 0.0
25/03:30pm 16.6 13.0 10.7 68 3.2 NNW 20 35 11 19 1014.3 - 0.0
25/03:00pm 16.5 13.7 11.4 72 2.8 NNW 17 30 9 16 1014.5 1014.7 0.0
25/02:30pm 16.2 13.8 14.4 89 1.0 N 20 33 11 18 1014.5 - 0.0
25/02:00pm 14.9 12.2 13.4 91 0.8 N 20 35 11 19 1015.1 1015.2 0.0
25/01:30pm 14.4 11.9 14.1 98 0.2 NNW 20 41 11 22 1015.3 - 0.0
25/01:00pm 16.1 12.3 12.3 78 2.1 NNW 24 44 13 24 1015.2 1015.3 0.0
25/12:30pm 15.8 13.7 13.5 86 1.3 NW 17 26 9 14 1015.9 - 0.0
25/12:00pm 15.9 13.9 14.9 94 0.6 NNW 19 39 10 21 1016.0 1016.2 0.0
25/11:30am 15.3 14.1 15.1 99 0.1 N 15 20 8 11 1016.7 - 0.0
25/11:00am 14.9 13.2 14.6 98 0.2 N 17 30 9 16 1017.1 1017.3 0.0
25/10:30am 15.1 12.8 14.0 93 0.6 NNW 19 30 10 16 1017.4 - 0.0
25/10:00am 14.1 11.7 13.8 98 0.2 N 19 30 10 16 1017.7 1017.9 0.0
25/09:30am 14.4 13.2 14.1 98 0.2 NNW 13 24 7 13 1017.6 - 0.0
25/09:00am 14.3 13.1 14.1 99 0.1 N 13 22 7 12 1017.5 1017.7 1.0
25/08:30am 12.9 11.7 12.7 99 0.1 N 11 19 6 10 1017.5 - 1.0
25/08:00am 12.7 11.8 12.5 99 0.1 N 9 15 5 8 1017.5 1017.7 1.0
25/07:30am 12.4 11.4 12.4 100 0.0 N 9 13 5 7 1017.7 - 1.0
25/07:00am 12.5 11.2 12.5 100 0.0 N 11 19 6 10 1017.5 1017.7 1.0
25/06:30am 12.2 10.8 12.2 100 0.0 N 11 15 6 8 1017.3 - 1.0
25/06:00am 12.4 11.1 12.4 100 0.0 N 11 17 6 9 1017.2 1017.4 1.0
25/05:30am 12.2 11.6 12.2 100 0.0 N 7 13 4 7 1017.2 - 1.0
25/05:00am 12.1 11.0 12.1 100 0.0 N 9 17 5 9 1017.3 1017.5 1.0
25/04:30am 12.0 10.9 12.0 100 0.0 NNW 9 15 5 8 1017.6 - 0.8
25/04:00am 11.9 11.2 11.9 100 0.0 NW 7 13 4 7 1017.6 1017.8 0.8
25/03:30am 11.4 11.1 11.4 100 0.0 NNW 4 7 2 4 1018.0 - 0.8
25/03:00am 10.9 10.1 10.9 100 0.0 NNW 6 9 3 5 1018.5 1018.7 0.8
25/02:30am 10.1 9.4 10.1 100 0.0 NNW 4 6 2 3 1018.5 - 0.8
25/02:00am 10.7 9.8 10.7 100 0.0 NNW 6 7 3 4 1018.5 1018.7 0.8
25/01:30am 11.0 10.2 11.0 100 0.0 NNW 6 7 3 4 1018.6 - 0.8
25/01:00am 11.5 10.3 11.5 100 0.0 N 9 15 5 8 1018.8 1019.0 0.8
25/12:30am 11.5 10.3 11.5 100 0.0 N 9 11 5 6 1018.9 - 0.8
25/12:00am 11.5 10.8 11.5 100 0.0 NNW 6 9 3 5 1019.3 1019.5 0.8
 
Date/Time
WST
Temp
°C
App
Temp
°C
Dew
Point
Rel
Hum
%
Delta-T
°C
Wind Press
QNH
hPa
Press
MSL
hPa
Rain
since 9 am
mm
Dir
 
Spd
km/h
Gust
km/h
Spd
kts
Gust
kts
24/11:30pm 11.2 10.3 11.2 100 0.0 NNW 7 11 4 6 1019.4 - 0.8
24/11:00pm 11.5 12.0 11.5 100 0.0 CALM 0 0 0 0 1019.6 1019.8 0.8
24/10:30pm 11.8 11.6 11.8 100 0.0 N 4 6 2 3 1019.8 - 0.8
24/10:00pm 11.8 11.2 11.8 100 0.0 NNW 6 9 3 5 1020.1 1020.3 0.6
24/09:30pm 11.9 11.2 11.9 100 0.0 NNW 7 13 4 7 1020.2 - 0.0
24/09:00pm 11.6 11.7 11.6 100 0.0 N 2 9 1 5 1020.2 1020.5 0.0
24/08:30pm 11.6 11.3 11.6 100 0.0 N 4 6 2 3 1020.2 - 0.0
24/08:00pm 11.3 10.3 11.1 99 0.1 N 7 11 4 6 1020.2 1020.5 0.0
24/07:30pm 11.8 11.0 11.6 99 0.1 N 7 11 4 6 1020.3 - 0.0
24/07:00pm 12.2 10.7 12.0 99 0.1 N 11 17 6 9 1020.2 1020.5 0.0
24/06:30pm 12.4 11.4 12.2 99 0.1 N 9 17 5 9 1020.3 - 0.0
24/06:00pm 13.1 11.6 12.0 93 0.6 NNW 11 22 6 12 1020.0 1020.2 0.0
24/05:30pm 12.5 12.5 9.7 83 1.4 CALM 0 0 0 0 1019.7 - 0.0
24/05:00pm 13.9 13.5 8.3 69 2.8 CALM 0 0 0 0 1019.4 1019.6 0.0
24/04:30pm 16.0 15.0 7.5 57 4.3 NW 2 7 1 4 1019.2 - 0.0
24/04:00pm 16.1 14.3 7.3 56 4.4 WNW 6 17 3 9 1019.1 1019.3 0.0
24/03:30pm 16.4 14.6 7.3 55 4.6 WNW 6 9 3 5 1019.2 - 0.0
24/03:00pm 16.2 14.0 7.7 57 4.3 WNW 9 15 5 8 1019.0 1019.2 0.0
24/02:30pm 16.2 14.4 7.9 58 4.2 NNW 7 15 4 8 1019.3 - 0.0
24/02:00pm 16.0 13.5 6.7 54 4.6 NW 9 19 5 10 1019.4 1019.6 0.0
24/01:30pm 15.4 12.8 5.9 53 4.6 WNW 9 17 5 9 1019.6 - 0.0
24/01:00pm 15.4 13.0 7.2 58 4.1 WNW 9 15 5 8 1020.0 1020.2 0.0
24/12:30pm 15.0 12.8 7.8 62 3.6 W 9 19 5 10 1020.4 - 0.0
24/12:00pm 14.2 11.9 7.5 64 3.3 W 9 17 5 9 1020.8 1021.0 0.0
24/11:30am 14.3 12.7 8.9 70 2.8 W 7 15 4 8 1021.2 - 0.0
24/11:00am 13.9 11.9 8.7 71 2.6 NW 9 17 5 9 1021.3 1021.5 0.0
24/10:30am 13.6 11.8 9.5 76 2.1 NW 9 15 5 8 1021.2 - 0.0
24/10:00am 12.4 11.0 9.4 82 1.5 NW 7 11 4 6 1021.3 1021.5 0.0
24/09:30am 10.4 10.6 10.4 100 0.0 CALM 0 0 0 0 1021.0 - 0.0
24/09:00am 8.3 7.9 8.3 100 0.0 CALM 0 0 0 0 1020.8 1021.0 1.2
24/08:30am 7.0 6.3 7.0 100 0.0 CALM 0 0 0 0 1020.7 - 1.2
24/08:00am 5.6 4.6 5.6 100 0.0 CALM 0 0 0 0 1020.4 1020.7 1.2
24/07:30am 4.6 3.4 4.6 100 0.0 CALM 0 0 0 0 1020.1 - 1.2
24/07:00am 4.2 2.9 4.2 100 0.0 CALM 0 0 0 0 1019.8 1020.0 1.2
24/06:30am 4.5 3.3 4.5 100 0.0 CALM 0 0 0 0 1019.5 - 1.2
24/06:00am 4.6 3.4 4.6 100 0.0 CALM 0 0 0 0 1019.3 1019.5 1.2
24/05:30am 4.9 3.8 4.9 100 0.0 CALM 0 0 0 0 1019.3 - 1.2
24/05:00am 5.3 4.2 5.3 100 0.0 CALM 0 0 0 0 1019.2 1019.4 1.2
24/04:30am 5.5 4.5 5.5 100 0.0 CALM 0 0 0 0 1019.0 - 1.2
24/04:00am 5.7 4.7 5.7 100 0.0 CALM 0 0 0 0 1018.8 1019.0 1.2
24/03:30am 6.4 5.2 6.4 100 0.0 NNW 2 6 1 3 1018.7 - 1.2
24/03:00am 6.4 5.6 6.4 100 0.0 CALM 0 0 0 0 1018.7 1018.9 1.2
24/02:30am 7.2 6.6 7.2 100 0.0 CALM 0 0 0 0 1018.5 - 1.2
24/02:00am 8.2 7.8 8.2 100 0.0 CALM 0 0 0 0 1018.3 1018.5 1.2
24/01:30am 9.6 9.5 9.6 100 0.0 CALM 0 4 0 2 1018.2 - 1.2
24/01:00am 10.3 9.7 10.3 100 0.0 N 4 6 2 3 1018.0 1018.2 1.2
24/12:30am 11.3 11.7 11.1 99 0.1 CALM 0 4 0 2 1018.1 - 1.0
24/12:00am 11.6 11.3 11.4 99 0.1 NNW 4 7 2 4 1018.3 1018.5 1.0
 
Date/Time
WST
Temp
°C
App
Temp
°C
Dew
Point
Rel
Hum
%
Delta-T
°C
Wind Press
QNH
hPa
Press
MSL
hPa
Rain
since 9 am
mm
Dir
 
Spd
km/h
Gust
km/h
Spd
kts
Gust
kts
23/11:30pm 11.6 11.3 11.4 99 0.1 NNW 4 7 2 4 1018.4 - 1.0
23/11:00pm 11.9 11.1 11.7 99 0.1 NNW 7 13 4 7 1018.1 1018.3 0.0
23/10:30pm 11.2 10.4 11.0 99 0.1 NNW 6 9 3 5 1018.1 - 0.0
23/10:00pm 11.0 10.1 10.8 99 0.1 NNW 6 9 3 5 1018.4 1018.6 0.0
23/09:30pm 10.4 9.2 10.2 99 0.1 N 7 13 4 7 1018.3 - 0.0
23/09:00pm 10.5 8.5 10.3 99 0.1 N 11 17 6 9 1018.3 1018.5 0.0
23/08:30pm 10.5 8.9 10.3 99 0.1 N 9 15 5 8 1018.5 - 0.0
23/08:00pm 10.4 8.4 10.2 99 0.1 N 11 17 6 9 1018.6 1018.8 0.0
23/07:30pm 10.2 8.9 10.1 99 0.1 N 7 13 4 7 1018.7 - 0.0
23/07:00pm 9.6 8.4 9.5 99 0.1 N 6 9 3 5 1018.7 1018.9 0.0
23/06:30pm 10.3 9.6 10.0 98 0.2 NNW 4 7 2 4 1018.8 - 0.0
23/06:00pm 11.3 10.6 10.2 93 0.6 NNW 4 7 2 4 1018.9 1019.1 0.0
23/05:30pm 11.9 10.6 9.8 87 1.1 NNW 7 13 4 7 1018.7 - 0.0
23/05:00pm 12.7 11.3 9.7 82 1.5 NW 7 15 4 8 1018.5 1018.7 0.0
23/04:30pm 13.1 12.6 10.8 86 1.2 NNW 4 7 2 4 1018.2 - 0.0
23/04:00pm 13.3 12.6 10.1 81 1.7 NNW 4 7 2 4 1018.1 1018.3 0.0
23/03:30pm 12.8 11.5 10.0 83 1.5 N 7 11 4 6 1018.5 - 0.0
23/03:00pm 12.5 11.0 9.1 80 1.7 WNW 7 15 4 8 1018.4 1018.6 0.0
23/02:30pm 13.0 11.0 8.7 75 2.2 NW 9 15 5 8 1018.5 - 0.0
23/02:00pm 13.5 11.4 8.1 70 2.7 NW 9 17 5 9 1018.6 1018.8 0.0
23/01:30pm 13.4 11.0 8.5 72 2.5 NNW 11 24 6 13 1018.6 - 0.0
23/01:00pm 13.0 10.3 7.2 68 2.8 NW 11 20 6 11 1018.8 1019.0 0.0
23/12:30pm 13.1 10.4 7.5 69 2.8 WNW 11 20 6 11 1019.5 - 0.0
23/12:00pm 12.9 10.9 8.8 76 2.1 WNW 9 20 5 11 1020.0 1020.2 0.0
23/11:30am 12.3 9.1 8.6 78 1.9 NW 15 22 8 12 1020.4 - 0.0

Other Formats:

Comma delimited format used in spreadsheet applications
http://www.bom.gov.au/fwo/IDW60801/IDW60801.95632.axf

JavaScript Object Notation format (JSON) in row-major order
http://www.bom.gov.au/fwo/IDW60801/IDW60801.95632.json